Aviation Digital Data Service (ADDS)

Output produced by METARs form (1717 UTC 21 November 2017)
found at http://aviationweather.gov/adds/metars/
 
KPVD 211509Z 2115/2212 22012G26KT P6SM FEW250 
     FM212100 21012G34KT P6SM FEW250 
     FM220200 21010G26KT P6SM FEW250 
     FM220800 21006KT 5SM -RA OVC090